Aérodrome :
LOGIN :

S'inscrire | Disclaimer

   EN    FR    IT 

 










Légende :    VFR   VFR Marginal   IFR   IFR Intensif   IFR Très Intensif
Visi : 
Plafond : 
>= 8 km
>= 3000ft
5 à 8 km
1000 à 3000 ft
1500m à 5 km
500 à 1000 ft
800 à 1500m
200 à 500 ft
< 800m
< 200 ft
Symboles :   Orages  Brouillard  Fortes neiges  Fortes précipitations  Vent > 20 kt
SIGMETs :   Divers  Orages  Givrage  Turbulence  Onde Orograph.  Cendres Volcan.






- Altitude de l'aérodrome : 13 ft
- Code IATA : GOA


LIMJ - Genoa Cristoforo Colombo

DERNIER METAR :
  • 051850Z 17002KT CAVOK 26/18 Q1013

METARs EXPIRÉS :
  • 051820Z 19004KT CAVOK 26/19 Q1012
  • 051750Z 20004KT CAVOK 26/19 Q1012
  • 051720Z 20005KT 160V230 CAVOK 26/18 Q1012
  • 051650Z 14005KT CAVOK 26/19 Q1011
  • 051620Z 13007KT 120V180 CAVOK 26/20 Q1011
  • 051550Z 12007KT CAVOK 27/19 Q1011

TAF TAF LIMJ
Valide du 05 à 18h jusqu'au 06 à 18h UTC


051700Z 0518/0618 03008KT CAVOK



MET'MAP, la Météo Aéronautique d'un coup d'oeil ! - Copyright ORBIFLY Décembre 2007 - Disclaimer

ORBIFLY MET'MAP TEAM :

Programmation & Développement : Alexandra Zaïnal
Sur une idée originale de : Baudouin d'Aumeries
Assistance à la programmation : Marc-Olivier Méhu
Soutien technique & logistique : Manuel Goepfert

Contact : metmap@orbifly.com




SOURCES & CREDITS :

   NOAA